sensor_id;sensor_type;location;lat;lon;timestamp;P1;durP1;ratioP1;P2;durP2;ratioP2
32976;SDS011;67408;50.842;4.450;2023-02-05T10:45:27;21.48;;;5.32;;
32976;SDS011;67408;50.842;4.450;2023-02-05T10:53:19;20.00;;;5.30;;
32976;SDS011;67408;50.842;4.450;2023-02-05T10:55:50;23.00;;;5.35;;
32976;SDS011;67408;50.842;4.450;2023-02-05T11:00:51;26.95;;;6.55;;
32976;SDS011;67408;50.842;4.450;2023-02-05T11:03:17;218.48;;;15.90;;
32976;SDS011;67408;50.842;4.450;2023-02-05T11:05:45;72.32;;;8.10;;
32976;SDS011;67408;50.842;4.450;2023-02-05T11:11:00;121.13;;;11.10;;
32976;SDS011;67408;50.842;4.450;2023-02-05T11:13:27;80.05;;;8.80;;
32976;SDS011;67408;50.842;4.450;2023-02-05T11:16:02;58.67;;;7.10;;
32976;SDS011;67408;50.842;4.450;2023-02-05T11:18:32;49.40;;;6.50;;
32976;SDS011;67408;50.842;4.450;2023-02-05T11:21:03;41.60;;;7.70;;
32976;SDS011;67408;50.842;4.450;2023-02-05T11:23:30;53.90;;;7.47;;
32976;SDS011;67408;50.842;4.450;2023-02-05T11:25:58;50.63;;;7.20;;
32976;SDS011;67408;50.842;4.450;2023-02-05T11:28:29;26.80;;;6.13;;
32976;SDS011;67408;50.842;4.450;2023-02-05T11:30:56;29.00;;;6.10;;
32976;SDS011;67408;50.842;4.450;2023-02-05T11:36:02;31.33;;;5.97;;
32976;SDS011;67408;50.842;4.450;2023-02-05T11:41:01;28.42;;;6.53;;
32976;SDS011;67408;50.842;4.450;2023-02-05T11:43:30;28.02;;;5.75;;
32976;SDS011;67408;50.842;4.450;2023-02-05T11:46:05;26.50;;;5.82;;
32976;SDS011;67408;50.842;4.450;2023-02-05T11:48:40;52.65;;;6.05;;
32976;SDS011;67408;50.842;4.450;2023-02-05T11:51:27;37.38;;;6.47;;
32976;SDS011;67408;50.842;4.450;2023-02-05T11:53:53;38.47;;;5.97;;
32976;SDS011;67408;50.842;4.450;2023-02-05T11:56:22;54.42;;;6.95;;
32976;SDS011;67408;50.842;4.450;2023-02-05T11:58:59;41.50;;;5.85;;
32976;SDS011;67408;50.842;4.450;2023-02-05T12:01:31;21.77;;;4.88;;
32976;SDS011;67408;50.842;4.450;2023-02-05T12:03:59;33.17;;;4.47;;
32976;SDS011;67408;50.842;4.450;2023-02-05T12:06:41;24.50;;;4.38;;
32976;SDS011;67408;50.842;4.450;2023-02-05T12:09:22;26.90;;;4.85;;
32976;SDS011;67408;50.842;4.450;2023-02-05T12:20:11;18.52;;;5.32;;
32976;SDS011;67408;50.842;4.450;2023-02-05T12:36:36;20.48;;;4.30;;
32976;SDS011;67408;50.842;4.450;2023-02-05T12:39:16;22.58;;;4.35;;
32976;SDS011;67408;50.842;4.450;2023-02-05T12:42:39;20.52;;;4.20;;
32976;SDS011;67408;50.842;4.450;2023-02-05T12:53:50;19.17;;;4.10;;
32976;SDS011;67408;50.842;4.450;2023-02-05T13:01:44;15.60;;;3.92;;
32976;SDS011;67408;50.842;4.450;2023-02-05T13:04:19;17.55;;;4.60;;
32976;SDS011;67408;50.842;4.450;2023-02-05T13:07:35;19.75;;;3.97;;
32976;SDS011;67408;50.842;4.450;2023-02-05T13:10:00;17.40;;;4.30;;
32976;SDS011;67408;50.842;4.450;2023-02-05T13:12:30;12.35;;;4.32;;
32976;SDS011;67408;50.842;4.450;2023-02-05T13:17:56;14.55;;;3.78;;
32976;SDS011;67408;50.842;4.450;2023-02-05T13:20:36;18.42;;;5.38;;
32976;SDS011;67408;50.842;4.450;2023-02-05T13:23:33;13.23;;;4.03;;
32976;SDS011;67408;50.842;4.450;2023-02-05T13:26:18;15.82;;;4.03;;
32976;SDS011;67408;50.842;4.450;2023-02-05T13:29:15;12.35;;;3.40;;
32976;SDS011;67408;50.842;4.450;2023-02-05T13:31:42;11.95;;;4.18;;
32976;SDS011;67408;50.842;4.450;2023-02-05T13:34:13;11.93;;;3.50;;
32976;SDS011;67408;50.842;4.450;2023-02-05T13:52:55;12.98;;;3.13;;
32976;SDS011;67408;50.842;4.450;2023-02-05T13:58:25;16.55;;;4.13;;
32976;SDS011;67408;50.842;4.450;2023-02-05T14:00:55;24.88;;;3.92;;
32976;SDS011;67408;50.842;4.450;2023-02-05T14:03:35;25.48;;;3.88;;
32976;SDS011;67408;50.842;4.450;2023-02-05T14:11:55;27.33;;;4.72;;
32976;SDS011;67408;50.842;4.450;2023-02-05T14:16:56;18.17;;;4.63;;
32976;SDS011;67408;50.842;4.450;2023-02-05T14:19:25;20.42;;;4.22;;
32976;SDS011;67408;50.842;4.450;2023-02-05T14:24:57;17.38;;;4.05;;
32976;SDS011;67408;50.842;4.450;2023-02-05T14:29:55;22.77;;;3.85;;
32976;SDS011;67408;50.842;4.450;2023-02-05T14:34:58;14.13;;;3.80;;
32976;SDS011;67408;50.842;4.450;2023-02-05T14:37:43;20.52;;;3.63;;
32976;SDS011;67408;50.842;4.450;2023-02-05T14:40:20;19.85;;;4.28;;
32976;SDS011;67408;50.842;4.450;2023-02-05T14:42:47;21.48;;;3.95;;
32976;SDS011;67408;50.842;4.450;2023-02-05T14:45:33;32.38;;;4.30;;
32976;SDS011;67408;50.842;4.450;2023-02-05T14:48:14;17.73;;;4.13;;
32976;SDS011;67408;50.842;4.450;2023-02-05T14:50:46;21.67;;;4.38;;
32976;SDS011;67408;50.842;4.450;2023-02-05T14:53:29;16.85;;;4.05;;
32976;SDS011;67408;50.842;4.450;2023-02-05T14:55:56;24.65;;;4.60;;
32976;SDS011;67408;50.842;4.450;2023-02-05T14:58:24;19.90;;;4.55;;
32976;SDS011;67408;50.842;4.450;2023-02-05T15:03:53;221.57;;;10.50;;
32976;SDS011;67408;50.842;4.450;2023-02-05T15:06:21;15.68;;;3.70;;
32976;SDS011;67408;50.842;4.450;2023-02-05T15:08:53;15.27;;;3.40;;
32976;SDS011;67408;50.842;4.450;2023-02-05T15:16:46;23.88;;;3.90;;
32976;SDS011;67408;50.842;4.450;2023-02-05T15:19:41;20.40;;;4.40;;
32976;SDS011;67408;50.842;4.450;2023-02-05T15:25:01;26.30;;;4.40;;
32976;SDS011;67408;50.842;4.450;2023-02-05T15:27:48;18.50;;;3.25;;
32976;SDS011;67408;50.842;4.450;2023-02-05T15:30:21;15.80;;;3.85;;
32976;SDS011;67408;50.842;4.450;2023-02-05T15:32:53;20.17;;;3.95;;
32976;SDS011;67408;50.842;4.450;2023-02-05T15:35:28;18.60;;;3.85;;
32976;SDS011;67408;50.842;4.450;2023-02-05T15:38:13;26.25;;;4.07;;
32976;SDS011;67408;50.842;4.450;2023-02-05T15:43:35;19.98;;;4.50;;
32976;SDS011;67408;50.842;4.450;2023-02-05T15:46:04;29.17;;;4.55;;
32976;SDS011;67408;50.842;4.450;2023-02-05T15:48:32;28.40;;;4.78;;
32976;SDS011;67408;50.842;4.450;2023-02-05T15:53:53;26.42;;;4.32;;
32976;SDS011;67408;50.842;4.450;2023-02-05T15:56:29;26.98;;;5.15;;
32976;SDS011;67408;50.842;4.450;2023-02-05T15:59:04;31.17;;;6.07;;
32976;SDS011;67408;50.842;4.450;2023-02-05T16:01:42;22.20;;;5.47;;
32976;SDS011;67408;50.842;4.450;2023-02-05T16:04:18;19.60;;;6.55;;
32976;SDS011;67408;50.842;4.450;2023-02-05T16:06:52;19.55;;;5.90;;
32976;SDS011;67408;50.842;4.450;2023-02-05T16:09:19;24.10;;;6.50;;
32976;SDS011;67408;50.842;4.450;2023-02-05T16:11:48;26.38;;;6.35;;
32976;SDS011;67408;50.842;4.450;2023-02-05T16:14:15;19.50;;;5.05;;
32976;SDS011;67408;50.842;4.450;2023-02-05T16:17:04;22.50;;;5.30;;
32976;SDS011;67408;50.842;4.450;2023-02-05T16:19:52;16.15;;;5.00;;
32976;SDS011;67408;50.842;4.450;2023-02-05T16:22:34;14.18;;;4.85;;
32976;SDS011;67408;50.842;4.450;2023-02-05T16:28:04;15.40;;;4.88;;
32976;SDS011;67408;50.842;4.450;2023-02-05T16:30:37;17.15;;;4.72;;
32976;SDS011;67408;50.842;4.450;2023-02-05T16:33:07;20.52;;;4.80;;
32976;SDS011;67408;50.842;4.450;2023-02-05T16:35:47;18.25;;;4.60;;
32976;SDS011;67408;50.842;4.450;2023-02-05T16:38:14;19.05;;;4.55;;
32976;SDS011;67408;50.842;4.450;2023-02-05T16:40:42;19.30;;;4.90;;
32976;SDS011;67408;50.842;4.450;2023-02-05T16:43:29;15.27;;;3.97;;
32976;SDS011;67408;50.842;4.450;2023-02-05T16:48:32;15.70;;;4.28;;
32976;SDS011;67408;50.842;4.450;2023-02-05T16:51:50;17.05;;;4.95;;
32976;SDS011;67408;50.842;4.450;2023-02-05T16:56:37;15.50;;;4.38;;
32976;SDS011;67408;50.842;4.450;2023-02-05T16:59:14;15.00;;;4.07;;
32976;SDS011;67408;50.842;4.450;2023-02-05T17:01:48;18.23;;;4.05;;
32976;SDS011;67408;50.842;4.450;2023-02-05T17:04:17;12.35;;;3.80;;
32976;SDS011;67408;50.842;4.450;2023-02-05T17:06:50;20.92;;;4.00;;
32976;SDS011;67408;50.842;4.450;2023-02-05T17:09:37;13.40;;;3.42;;
32976;SDS011;67408;50.842;4.450;2023-02-05T17:17:22;14.35;;;4.07;;
32976;SDS011;67408;50.842;4.450;2023-02-05T17:20:06;12.85;;;3.50;;
32976;SDS011;67408;50.842;4.450;2023-02-05T17:25:28;13.05;;;3.20;;
32976;SDS011;67408;50.842;4.450;2023-02-05T17:28:10;15.75;;;3.80;;
32976;SDS011;67408;50.842;4.450;2023-02-05T17:30:41;14.77;;;3.78;;
32976;SDS011;67408;50.842;4.450;2023-02-05T17:33:08;15.48;;;4.20;;
32976;SDS011;67408;50.842;4.450;2023-02-05T17:35:41;16.67;;;4.00;;
32976;SDS011;67408;50.842;4.450;2023-02-05T17:38:06;16.50;;;3.10;;
32976;SDS011;67408;50.842;4.450;2023-02-05T17:40:32;16.92;;;3.63;;
32976;SDS011;67408;50.842;4.450;2023-02-05T17:42:57;14.93;;;3.47;;
32976;SDS011;67408;50.842;4.450;2023-02-05T17:45:24;10.90;;;2.83;;
32976;SDS011;67408;50.842;4.450;2023-02-05T17:47:54;12.65;;;3.47;;
32976;SDS011;67408;50.842;4.450;2023-02-05T17:50:19;13.95;;;3.80;;
32976;SDS011;67408;50.842;4.450;2023-02-05T17:52:45;12.50;;;3.28;;
32976;SDS011;67408;50.842;4.450;2023-02-05T17:55:15;9.48;;;3.58;;
32976;SDS011;67408;50.842;4.450;2023-02-05T17:57:43;19.95;;;4.43;;
32976;SDS011;67408;50.842;4.450;2023-02-05T18:00:13;15.63;;;3.63;;
32976;SDS011;67408;50.842;4.450;2023-02-05T18:02:41;16.05;;;4.32;;
32976;SDS011;67408;50.842;4.450;2023-02-05T18:05:07;14.52;;;3.13;;
32976;SDS011;67408;50.842;4.450;2023-02-05T18:07:37;16.25;;;3.85;;
32976;SDS011;67408;50.842;4.450;2023-02-05T18:10:04;15.63;;;4.32;;
32976;SDS011;67408;50.842;4.450;2023-02-05T18:12:31;15.27;;;3.60;;
32976;SDS011;67408;50.842;4.450;2023-02-05T18:14:57;17.95;;;3.90;;
32976;SDS011;67408;50.842;4.450;2023-02-05T18:17:25;11.13;;;3.00;;
32976;SDS011;67408;50.842;4.450;2023-02-05T18:19:50;14.15;;;4.15;;
32976;SDS011;67408;50.842;4.450;2023-02-05T18:22:19;13.93;;;3.90;;
32976;SDS011;67408;50.842;4.450;2023-02-05T18:24:47;16.60;;;4.03;;
32976;SDS011;67408;50.842;4.450;2023-02-05T18:27:13;10.55;;;3.47;;
32976;SDS011;67408;50.842;4.450;2023-02-05T18:29:41;13.32;;;3.08;;
32976;SDS011;67408;50.842;4.450;2023-02-05T18:32:06;13.55;;;3.33;;
32976;SDS011;67408;50.842;4.450;2023-02-05T18:34:32;11.07;;;3.33;;
32976;SDS011;67408;50.842;4.450;2023-02-05T18:36:57;12.30;;;3.88;;
32976;SDS011;67408;50.842;4.450;2023-02-05T18:39:23;10.18;;;3.42;;
32976;SDS011;67408;50.842;4.450;2023-02-05T18:41:53;13.10;;;3.45;;
32976;SDS011;67408;50.842;4.450;2023-02-05T18:44:22;14.57;;;3.40;;
32976;SDS011;67408;50.842;4.450;2023-02-05T18:46:49;13.85;;;4.53;;
32976;SDS011;67408;50.842;4.450;2023-02-05T18:49:14;16.77;;;3.92;;
32976;SDS011;67408;50.842;4.450;2023-02-05T18:51:40;19.30;;;4.72;;
32976;SDS011;67408;50.842;4.450;2023-02-05T18:54:06;16.95;;;4.40;;
32976;SDS011;67408;50.842;4.450;2023-02-05T18:56:31;14.45;;;4.07;;
32976;SDS011;67408;50.842;4.450;2023-02-05T18:58:59;14.50;;;3.78;;
32976;SDS011;67408;50.842;4.450;2023-02-05T19:01:33;14.15;;;3.25;;
32976;SDS011;67408;50.842;4.450;2023-02-05T19:04:01;13.45;;;4.07;;
32976;SDS011;67408;50.842;4.450;2023-02-05T19:06:28;12.23;;;3.20;;
32976;SDS011;67408;50.842;4.450;2023-02-05T19:08:55;13.35;;;3.75;;
32976;SDS011;67408;50.842;4.450;2023-02-05T19:11:22;15.82;;;3.88;;
32976;SDS011;67408;50.842;4.450;2023-02-05T19:13:56;14.43;;;4.57;;
32976;SDS011;67408;50.842;4.450;2023-02-05T19:16:25;12.45;;;3.38;;
32976;SDS011;67408;50.842;4.450;2023-02-05T19:18:51;11.82;;;3.53;;
32976;SDS011;67408;50.842;4.450;2023-02-05T19:21:17;8.93;;;3.08;;
32976;SDS011;67408;50.842;4.450;2023-02-05T19:23:45;9.13;;;3.55;;
32976;SDS011;67408;50.842;4.450;2023-02-05T19:26:15;11.50;;;3.40;;
32976;SDS011;67408;50.842;4.450;2023-02-05T19:28:44;10.18;;;3.63;;
32976;SDS011;67408;50.842;4.450;2023-02-05T19:31:15;12.98;;;3.75;;
32976;SDS011;67408;50.842;4.450;2023-02-05T19:33:40;15.27;;;3.45;;
32976;SDS011;67408;50.842;4.450;2023-02-05T19:36:06;12.15;;;3.25;;
32976;SDS011;67408;50.842;4.450;2023-02-05T19:38:37;13.25;;;3.80;;
32976;SDS011;67408;50.842;4.450;2023-02-05T19:43:39;14.48;;;4.05;;
32976;SDS011;67408;50.842;4.450;2023-02-05T19:46:17;15.05;;;3.97;;
32976;SDS011;67408;50.842;4.450;2023-02-05T19:48:44;11.70;;;3.58;;
32976;SDS011;67408;50.842;4.450;2023-02-05T19:51:11;12.60;;;3.88;;
32976;SDS011;67408;50.842;4.450;2023-02-05T19:53:38;11.68;;;3.70;;
32976;SDS011;67408;50.842;4.450;2023-02-05T19:56:12;14.13;;;3.53;;
32976;SDS011;67408;50.842;4.450;2023-02-05T19:58:43;12.88;;;3.80;;
32976;SDS011;67408;50.842;4.450;2023-02-05T20:03:46;10.70;;;3.53;;
32976;SDS011;67408;50.842;4.450;2023-02-05T20:06:13;15.75;;;3.72;;
32976;SDS011;67408;50.842;4.450;2023-02-05T20:08:40;11.90;;;3.70;;
32976;SDS011;67408;50.842;4.450;2023-02-05T20:11:10;13.40;;;4.30;;
32976;SDS011;67408;50.842;4.450;2023-02-05T20:13:36;13.45;;;4.10;;
32976;SDS011;67408;50.842;4.450;2023-02-05T20:16:06;17.05;;;4.28;;
32976;SDS011;67408;50.842;4.450;2023-02-05T20:18:42;14.25;;;3.50;;
32976;SDS011;67408;50.842;4.450;2023-02-05T20:21:09;11.65;;;3.83;;
32976;SDS011;67408;50.842;4.450;2023-02-05T20:23:37;11.52;;;3.42;;
32976;SDS011;67408;50.842;4.450;2023-02-05T20:26:03;14.00;;;4.35;;
32976;SDS011;67408;50.842;4.450;2023-02-05T20:28:32;15.13;;;4.10;;
32976;SDS011;67408;50.842;4.450;2023-02-05T20:31:26;11.90;;;3.50;;
32976;SDS011;67408;50.842;4.450;2023-02-05T20:34:06;14.43;;;4.25;;
32976;SDS011;67408;50.842;4.450;2023-02-05T20:36:34;15.95;;;4.40;;
32976;SDS011;67408;50.842;4.450;2023-02-05T20:39:01;11.73;;;3.85;;
32976;SDS011;67408;50.842;4.450;2023-02-05T20:41:29;13.65;;;3.40;;
32976;SDS011;67408;50.842;4.450;2023-02-05T20:43:55;12.48;;;3.92;;
32976;SDS011;67408;50.842;4.450;2023-02-05T20:46:21;17.70;;;4.65;;
32976;SDS011;67408;50.842;4.450;2023-02-05T20:48:48;13.20;;;3.83;;
32976;SDS011;67408;50.842;4.450;2023-02-05T20:51:15;13.20;;;4.18;;
32976;SDS011;67408;50.842;4.450;2023-02-05T20:53:42;16.80;;;5.15;;
32976;SDS011;67408;50.842;4.450;2023-02-05T20:56:13;16.20;;;4.32;;
32976;SDS011;67408;50.842;4.450;2023-02-05T20:58:43;13.98;;;4.40;;
32976;SDS011;67408;50.842;4.450;2023-02-05T21:01:10;15.43;;;3.97;;
32976;SDS011;67408;50.842;4.450;2023-02-05T21:03:38;16.40;;;3.90;;
32976;SDS011;67408;50.842;4.450;2023-02-05T21:06:06;13.77;;;4.35;;
32976;SDS011;67408;50.842;4.450;2023-02-05T21:08:33;14.27;;;4.38;;
32976;SDS011;67408;50.842;4.450;2023-02-05T21:11:02;14.17;;;4.60;;
32976;SDS011;67408;50.842;4.450;2023-02-05T21:13:28;12.52;;;3.67;;
32976;SDS011;67408;50.842;4.450;2023-02-05T21:15:54;12.55;;;3.67;;
